RA32077 URWW-UWWW
Flight info
| Callsign | RA32077 |
|---|---|
| Flight time | N/A |
| Altitude | 37000 |
| Route | RODUN1E RODUN R807 UROBO P135 TUNIG TUNIG2F |
| Aircraft | A320/M-SDE3FGHIRWY/LB1 |
Departure
| Time | 2026-04-24 19:00 |
|---|---|
| Airport | Volgograd International Airport (URWW) |
Arrival
| Time | N/A |
|---|---|
| Airport | Kurumoch International Airport (UWWW) |
| Time | Latitude | Longitude | Altitude | Speed | Heading |
|---|---|---|---|---|---|
| 2026-04-24 18:54 | 48.78972 | 44.35354 | 479 ft | 0 kts | 250° |
| 2026-04-24 18:56 | 48.78970 | 44.35345 | 478 ft | 5 kts | 252° |
| 2026-04-24 18:56 | 48.78946 | 44.35222 | 479 ft | 16 kts | 249° |
| 2026-04-24 18:57 | 48.78893 | 44.35109 | 486 ft | 13 kts | 195° |
| 2026-04-24 18:57 | 48.78817 | 44.35145 | 483 ft | 11 kts | 161° |
| 2026-04-24 18:57 | 48.78752 | 44.35176 | 481 ft | 9 kts | 163° |
| 2026-04-24 18:57 | 48.78697 | 44.35204 | 485 ft | 8 kts | 160° |
| 2026-04-24 18:58 | 48.78684 | 44.35210 | 481 ft | 0 kts | 161° |
| 2026-04-24 18:58 | 48.78682 | 44.35211 | 481 ft | 3 kts | 161° |
| 2026-04-24 18:58 | 48.78609 | 44.35248 | 486 ft | 13 kts | 162° |
| 2026-04-24 18:59 | 48.78555 | 44.35227 | 485 ft | 7 kts | 239° |
| 2026-04-24 18:59 | 48.78549 | 44.35204 | 477 ft | 0 kts | 245° |
| 2026-04-24 18:59 | 48.78515 | 44.35100 | 481 ft | 42 kts | 244° |
| 2026-04-24 18:59 | 48.78281 | 44.34363 | 473 ft | 109 kts | 244° |
| 2026-04-24 19:00 | 48.77876 | 44.33060 | 465 ft | 160 kts | 248° |
| 2026-04-24 19:00 | 48.77426 | 44.31510 | 1091 ft | 159 kts | 248° |
| 2026-04-24 19:00 | 48.76966 | 44.30026 | 1926 ft | 153 kts | 248° |
| 2026-04-24 19:00 | 48.76503 | 44.28603 | 2673 ft | 148 kts | 249° |
| 2026-04-24 19:01 | 48.76023 | 44.27126 | 3016 ft | 167 kts | 250° |
| 2026-04-24 19:01 | 48.75485 | 44.25454 | 3322 ft | 189 kts | 250° |
| 2026-04-24 19:01 | 48.74887 | 44.23537 | 3639 ft | 213 kts | 250° |
| 2026-04-24 19:01 | 48.74652 | 44.21301 | 4178 ft | 223 kts | 283° |
| 2026-04-24 19:02 | 48.75110 | 44.19862 | 4706 ft | 231 kts | 307° |
| 2026-04-24 19:02 | 48.77105 | 44.18471 | 5766 ft | 262 kts | 353° |
| 2026-04-24 19:02 | 48.78918 | 44.19260 | 6531 ft | 287 kts | 26° |
| 2026-04-24 19:02 | 48.80474 | 44.21248 | 7324 ft | 298 kts | 40° |
| 2026-04-24 19:03 | 48.81950 | 44.23487 | 8128 ft | 302 kts | 40° |
| 2026-04-24 19:03 | 48.83446 | 44.25754 | 8927 ft | 306 kts | 40° |
| 2026-04-24 19:03 | 48.84966 | 44.28058 | 9733 ft | 311 kts | 40° |
| 2026-04-24 19:03 | 48.86576 | 44.30330 | 10172 ft | 325 kts | 34° |
| 2026-04-24 19:04 | 48.88450 | 44.32447 | 10404 ft | 346 kts | 30° |
| 2026-04-24 19:04 | 48.90504 | 44.34485 | 10860 ft | 357 kts | 28° |
| 2026-04-24 19:04 | 48.91934 | 44.35848 | 11317 ft | 361 kts | 27° |
| 2026-04-24 19:04 | 48.94070 | 44.37883 | 12032 ft | 365 kts | 28° |
| 2026-04-24 19:05 | 48.96224 | 44.39979 | 12744 ft | 369 kts | 29° |
| 2026-04-24 19:05 | 48.98382 | 44.42133 | 13460 ft | 373 kts | 30° |
| 2026-04-24 19:05 | 49.00554 | 44.44345 | 14102 ft | 377 kts | 30° |
| 2026-04-24 19:05 | 49.02735 | 44.46599 | 14733 ft | 380 kts | 30° |
| 2026-04-24 19:06 | 49.04930 | 44.48879 | 15361 ft | 384 kts | 30° |
| 2026-04-24 19:06 | 49.07146 | 44.51177 | 15983 ft | 387 kts | 30° |
| 2026-04-24 19:06 | 49.09386 | 44.53493 | 16603 ft | 390 kts | 30° |
| 2026-04-24 19:06 | 49.11641 | 44.55822 | 17223 ft | 394 kts | 30° |
| 2026-04-24 19:07 | 49.13918 | 44.58177 | 17827 ft | 397 kts | 30° |
| 2026-04-24 19:07 | 49.16212 | 44.60557 | 18374 ft | 401 kts | 30° |
| 2026-04-24 19:07 | 49.18528 | 44.62964 | 18854 ft | 405 kts | 30° |
| 2026-04-24 19:07 | 49.20873 | 44.65403 | 19334 ft | 410 kts | 30° |
| 2026-04-24 19:08 | 49.23243 | 44.67870 | 19813 ft | 415 kts | 30° |
| 2026-04-24 19:08 | 49.25642 | 44.70367 | 20293 ft | 419 kts | 30° |